Time;durP1;ratioP1;P1;durP2;ratioP2;P2;SDS_P1;SDS_P2;PMS_P1;PMS_P2;Temp;Humidity;BMP_temperature;BMP_pressure;BME280_temperature;BME280_humidity;BME280_pressure;Samples;Min_cycle;Max_cycle;Signal;HPM_P1;HPM_P2
2021/12/13 00:01:46;;;;;;;65.07;27.25;;;;;;;2.52;82.74;101360.81;5054023;28;20044;-50
2021/12/13 00:04:20;;;;;;;47.30;18.83;;;;;;;2.52;82.68;101360.81;5054047;28;20025;-49
2021/12/13 00:06:55;;;;;;;37.30;16.17;;;;;;;2.54;83.16;101366.03;5052613;28;20254;-52
2021/12/13 00:09:24;;;;;;;37.55;15.32;;;;;;;2.52;83.17;101373.81;5052461;28;20040;-49
2021/12/13 00:11:55;;;;;;;37.88;16.48;;;;;;;2.52;83.38;101371.19;5052621;28;20384;-52
2021/12/13 00:14:33;;;;;;;45.78;17.40;;;;;;;2.49;83.49;101376.31;5052750;28;20028;-50
2021/12/13 00:17:09;;;;;;;39.20;15.95;;;;;;;2.48;83.28;101371.97;5053851;28;20037;-49
2021/12/13 00:19:39;;;;;;;60.10;21.27;;;;;;;2.45;83.62;101370.16;5052537;28;20033;-52
2021/12/13 00:22:13;;;;;;;75.72;26.17;;;;;;;2.50;83.50;101372.88;5052701;28;20064;-53
2021/12/13 00:24:41;;;;;;;50.08;18.65;;;;;;;2.47;83.97;101375.38;5052714;28;20453;-50
2021/12/13 00:27:11;;;;;;;55.80;20.38;;;;;;;2.50;83.94;101367.69;5051942;28;20051;-51
2021/12/13 00:30:08;;;;;;;47.72;18.70;;;;;;;2.54;83.71;101368.63;5051675;28;20403;-49
2021/12/13 00:32:52;;;;;;;63.33;21.65;;;;;;;2.55;83.60;101375.56;5050690;28;20037;-51
2021/12/13 00:35:22;;;;;;;48.70;19.00;;;;;;;2.57;83.46;101379.97;5053791;28;20036;-49
2021/12/13 00:37:57;;;;;;;48.25;18.08;;;;;;;2.54;83.53;101385.09;5041306;28;20033;-49
2021/12/13 00:40:30;;;;;;;57.70;20.88;;;;;;;2.55;83.11;101381.63;5048346;28;20040;-49
2021/12/13 00:43:16;;;;;;;49.92;18.00;;;;;;;2.53;83.46;101387.66;5054282;28;20021;-49
2021/12/13 00:46:06;;;;;;;49.15;19.70;;;;;;;2.46;83.97;101377.09;5036110;28;20029;-49
2021/12/13 00:48:35;;;;;;;49.33;18.95;;;;;;;2.43;84.07;101383.91;5033600;28;20037;-51
2021/12/13 00:51:10;;;;;;;44.63;16.95;;;;;;;2.45;84.15;101385.72;5031964;28;20030;-51
2021/12/13 00:53:38;;;;;;;47.10;18.60;;;;;;;2.46;83.96;101376.22;5053463;28;20035;-50
2021/12/13 00:56:41;;;;;;;55.35;20.67;;;;;;;2.49;83.65;101371.13;5052069;28;20021;-52
2021/12/13 00:59:09;;;;;;;33.17;14.15;;;;;;;2.51;83.55;101374.59;5045223;28;20088;-51
2021/12/13 01:01:36;;;;;;;46.00;18.42;;;;;;;2.57;83.30;101372.19;5033268;28;20029;-53
2021/12/13 01:04:07;;;;;;;46.70;18.80;;;;;;;2.58;82.98;101379.13;5020234;28;20033;-50
2021/12/13 01:07:17;;;;;;;41.40;16.45;;;;;;;2.56;83.02;101374.75;5034996;28;20044;-49
2021/12/13 01:10:07;;;;;;;42.03;17.08;;;;;;;2.55;83.22;101376.44;5038457;28;20468;-50
2021/12/13 01:12:34;;;;;;;43.75;17.15;;;;;;;2.52;83.30;101372.94;5051013;28;20029;-53
2021/12/13 01:15:15;;;;;;;46.67;18.52;;;;;;;2.48;83.44;101377.16;5052401;28;20033;-50
2021/12/13 01:20:29;;;;;;;42.22;17.00;;;;;;;2.45;83.15;101379.66;5047376;28;20044;-49
2021/12/13 01:23:03;;;;;;;38.30;15.75;;;;;;;2.45;83.26;101370.16;5050889;28;20044;-51
2021/12/13 01:28:20;;;;;;;38.40;16.15;;;;;;;2.46;82.85;101374.50;5041475;28;20042;-50
2021/12/13 01:30:53;;;;;;;40.10;16.55;;;;;;;2.44;82.92;101368.41;5033139;28;20034;-52
2021/12/13 01:33:20;;;;;;;36.10;16.13;;;;;;;2.49;82.89;101365.06;5047385;28;20146;-51
2021/12/13 01:35:49;;;;;;;34.20;14.90;;;;;;;2.51;82.67;101365.94;5031703;28;20033;-51
2021/12/13 01:38:31;;;;;;;36.80;16.55;;;;;;;2.48;82.45;101364.19;5033439;28;20484;-50
2021/12/13 01:40:57;;;;;;;36.08;14.98;;;;;;;2.44;83.26;101370.13;5037099;28;20511;-50
2021/12/13 01:43:29;;;;;;;37.20;16.10;;;;;;;2.45;83.06;101364.97;5056589;28;20037;-49
2021/12/13 01:45:56;;;;;;;35.70;15.38;;;;;;;2.43;83.02;101369.25;5055384;28;20025;-53
2021/12/13 01:48:31;;;;;;;32.03;13.88;;;;;;;2.43;83.08;101365.75;5051254;28;20038;-49
2021/12/13 01:51:07;;;;;;;33.05;14.38;;;;;;;2.45;82.89;101369.28;5035308;28;20044;-49
2021/12/13 01:53:35;;;;;;;28.15;12.30;;;;;;;2.44;82.93;101368.41;5040051;28;20070;-52
2021/12/13 01:56:09;;;;;;;38.47;16.05;;;;;;;2.46;82.66;101360.66;5046174;28;20079;-49
2021/12/13 01:58:42;;;;;;;33.10;13.98;;;;;;;2.46;82.44;101365.84;5035584;28;20033;-49
2021/12/13 02:01:21;;;;;;;29.00;13.43;;;;;;;2.49;82.48;101371.13;5035356;28;20033;-52
2021/12/13 02:03:55;;;;;;;37.10;15.55;;;;;;;2.47;82.35;101362.41;5050831;28;20484;-50
2021/12/13 02:06:43;;;;;;;37.38;16.33;;;;;;;2.39;82.68;101363.91;5055153;28;20384;-49
2021/12/13 02:09:17;;;;;;;29.00;11.90;;;;;;;2.42;82.80;101364.88;5041826;28;20072;-48
2021/12/13 02:11:47;;;;;;;35.25;14.90;;;;;;;2.43;82.78;101373.53;5035016;28;20075;-49
2021/12/13 02:14:17;;;;;;;31.10;13.93;;;;;;;2.44;82.50;101378.78;5035920;28;20033;-49
2021/12/13 02:19:42;;;;;;;31.38;14.15;;;;;;;2.45;82.25;101370.16;5056061;28;20484;-49
2021/12/13 02:22:08;;;;;;;35.85;13.70;;;;;;;2.47;82.42;101377.97;5055904;28;20072;-52
2021/12/13 02:24:37;;;;;;;33.03;14.63;;;;;;;2.47;82.35;101370.19;5042241;28;20041;-49
2021/12/13 02:27:06;;;;;;;32.22;14.52;;;;;;;2.49;82.25;101365.94;5034355;28;20045;-50
2021/12/13 02:29:38;;;;;;;53.38;19.65;;;;;;;2.49;82.28;101371.13;5018249;28;20392;-49
2021/12/13 02:32:10;;;;;;;37.50;15.88;;;;;;;2.43;82.46;101368.34;5035561;28;20469;-49
2021/12/13 02:34:38;;;;;;;32.80;13.07;;;;;;;2.43;82.65;101373.53;5036896;28;20075;-49
2021/12/13 02:37:06;;;;;;;32.55;13.93;;;;;;;2.48;82.40;101379.75;5038707;28;20017;-51
2021/12/13 02:39:37;;;;;;;32.35;14.00;;;;;;;2.50;82.30;101372.88;5053949;28;20032;-49
2021/12/13 02:42:08;;;;;;;33.35;13.65;;;;;;;2.53;82.09;101372.94;5055278;28;20361;-50
2021/12/13 02:44:40;;;;;;;37.45;15.77;;;;;;;2.55;81.66;101365.19;5043950;28;20033;-50
2021/12/13 02:47:16;;;;;;;33.63;13.65;;;;;;;2.55;81.82;101366.06;5034352;28;20033;-50
2021/12/13 02:49:42;;;;;;;36.95;14.85;;;;;;;2.55;81.74;101371.25;5035076;28;20040;-49
2021/12/13 02:52:12;;;;;;;32.80;13.68;;;;;;;2.60;81.45;101368.81;5050290;28;20412;-49
2021/12/13 02:54:42;;;;;;;31.42;13.63;;;;;;;2.65;81.39;101383.66;5055250;28;20032;-49
2021/12/13 02:57:24;;;;;;;32.72;15.00;;;;;;;2.63;81.30;101387.94;5053292;28;20453;-52
2021/12/13 02:59:57;;;;;;;34.55;13.93;;;;;;;2.57;81.47;101382.56;5034260;28;20041;-49
2021/12/13 03:02:33;;;;;;;34.22;14.45;;;;;;;2.50;81.71;101375.47;5033801;28;20457;-49
2021/12/13 03:05:00;;;;;;;42.10;17.23;;;;;;;2.54;81.60;101363.44;5042956;28;20044;-52
2021/12/13 03:07:33;;;;;;;35.08;14.13;;;;;;;2.52;81.46;101371.19;5036985;28;20103;-49
2021/12/13 03:10:00;;;;;;;32.65;14.35;;;;;;;2.53;81.68;101364.28;5042866;28;20083;-50
2021/12/13 03:12:28;;;;;;;28.73;13.52;;;;;;;2.54;81.72;101363.44;5048115;28;20037;-50
2021/12/13 03:14:57;;;;;;;32.28;14.48;;;;;;;2.55;81.74;101363.47;5053550;28;20120;-51
2021/12/13 03:17:35;;;;;;;28.02;12.95;;;;;;;2.59;81.39;101357.53;5052699;28;20121;-51
2021/12/13 03:20:25;;;;;;;31.58;13.68;;;;;;;2.61;81.19;101358.47;5034858;28;20061;-49
2021/12/13 03:23:12;;;;;;;32.20;14.98;;;;;;;2.63;81.18;101354.22;5047851;28;20123;-53
2021/12/13 03:26:02;;;;;;;30.63;14.02;;;;;;;2.68;80.96;101362.09;5041014;28;20049;-51
2021/12/13 03:29:26;;;;;;;31.63;14.65;;;;;;;2.66;80.54;101355.97;5034729;28;20104;-51
2021/12/13 03:31:55;;;;;;;27.65;12.63;;;;;;;2.64;80.82;101361.16;5013884;28;20392;-50
2021/12/13 03:34:22;;;;;;;30.58;15.00;;;;;;;2.63;80.74;101364.59;5049411;28;20115;-50
2021/12/13 03:36:56;;;;;;;29.73;13.02;;;;;;;2.61;80.89;101361.06;5039369;28;20037;-51
2021/12/13 03:39:29;;;;;;;26.50;12.27;;;;;;;2.59;80.98;101362.72;5036857;28;20065;-49
2021/12/13 03:41:57;;;;;;;25.10;12.55;;;;;;;2.57;81.05;101359.22;5034727;28;20091;-48
2021/12/13 03:44:32;;;;;;;27.80;12.07;;;;;;;2.58;81.30;101365.28;5035438;28;20575;-49
2021/12/13 03:47:08;;;;;;;31.48;15.23;;;;;;;2.57;81.30;101369.59;5053450;28;20423;-50
2021/12/13 03:49:40;;;;;;;34.22;15.30;;;;;;;2.58;80.95;101365.28;5054128;28;20028;-49
2021/12/13 03:52:07;;;;;;;31.70;14.27;;;;;;;2.55;81.27;101363.47;5040738;28;20112;-51
2021/12/13 03:54:37;;;;;;;42.38;17.38;;;;;;;2.51;81.35;101364.22;5034612;28;20037;-53
2021/12/13 03:57:04;;;;;;;32.58;14.00;;;;;;;2.51;81.53;101366.81;5032936;28;20033;-48
2021/12/13 03:59:34;;;;;;;26.67;12.65;;;;;;;2.53;81.35;101374.69;5051009;28;20044;-52
2021/12/13 04:02:04;;;;;;;31.58;13.98;;;;;;;2.54;81.26;101377.28;5052398;28;20107;-49
2021/12/13 04:04:40;;;;;;;31.77;15.40;;;;;;;2.53;81.06;101370.34;5046819;28;20120;-49
2021/12/13 04:07:11;;;;;;;29.38;13.60;;;;;;;2.53;81.23;101374.69;5032527;28;20029;-50
2021/12/13 04:09:38;;;;;;;25.35;12.68;;;;;;;2.52;81.41;101368.63;5042778;28;20457;-52
2021/12/13 04:12:06;;;;;;;25.35;13.18;;;;;;;2.52;81.50;101376.38;5021734;28;20034;-50
2021/12/13 04:14:39;;;;;;;31.10;14.65;;;;;;;2.56;81.28;101383.41;5032543;28;20030;-52
2021/12/13 04:17:23;;;;;;;26.95;13.18;;;;;;;2.59;81.10;101380.00;5034299;28;20025;-49
2021/12/13 04:19:58;;;;;;;30.15;14.00;;;;;;;2.63;80.79;101381.84;5053806;28;20037;-49
2021/12/13 04:22:32;;;;;;;29.02;14.25;;;;;;;2.66;80.52;101384.53;5052126;28;20029;-50
2021/12/13 04:25:09;;;;;;;27.63;14.00;;;;;;;2.67;80.23;101387.19;5050795;28;20036;-50
2021/12/13 04:27:41;;;;;;;27.98;12.60;;;;;;;2.69;80.46;101377.72;5053411;28;20095;-50
2021/12/13 04:30:23;;;;;;;28.75;14.93;;;;;;;2.74;80.21;101393.41;5050227;28;20071;-49
2021/12/13 04:32:53;;;;;;;28.73;14.02;;;;;;;2.77;79.97;101390.00;5032393;28;20064;-50
2021/12/13 04:35:18;;;;;;;29.60;14.57;;;;;;;2.77;79.88;101393.47;5033642;28;20064;-49
2021/12/13 04:37:49;;;;;;;28.67;14.63;;;;;;;2.82;79.86;101397.06;5045444;28;20052;-49
2021/12/13 04:40:19;;;;;;;34.50;16.00;;;;;;;2.83;79.56;101397.94;5052186;28;20036;-49
2021/12/13 04:42:58;;;;;;;30.15;14.93;;;;;;;2.84;79.68;101395.41;5035297;28;20481;-50
2021/12/13 04:45:24;;;;;;;29.67;14.88;;;;;;;2.83;79.70;101392.75;5053629;28;20029;-49
2021/12/13 04:48:01;;;;;;;33.40;16.77;;;;;;;2.82;79.64;101396.19;5035611;28;20039;-50
2021/12/13 04:50:28;;;;;;;29.10;15.25;;;;;;;2.85;79.75;101398.88;5036542;28;20025;-49
2021/12/13 04:52:55;;;;;;;31.45;15.95;;;;;;;2.87;79.45;101395.50;5032284;28;20037;-51
2021/12/13 04:55:35;;;;;;;29.92;15.77;;;;;;;2.89;79.54;101392.94;5015726;28;20561;-56
2021/12/13 04:58:06;;;;;;;28.35;14.35;;;;;;;2.90;79.27;101394.69;5033382;28;20044;-51
2021/12/13 05:00:36;;;;;;;28.38;14.70;;;;;;;2.92;79.35;101393.88;5032281;28;20384;-52
2021/12/13 05:03:03;;;;;;;27.20;14.38;;;;;;;2.93;79.44;101400.81;5032214;28;20040;-50
2021/12/13 05:05:30;;;;;;;31.33;15.75;;;;;;;2.85;79.48;101397.16;5032089;28;20030;-53
2021/12/13 05:07:56;;;;;;;28.20;14.60;;;;;;;2.86;79.73;101398.91;5020374;28;20029;-52
2021/12/13 05:10:25;;;;;;;37.15;18.38;;;;;;;2.91;79.79;101412.00;5029079;28;20052;-53
2021/12/13 05:13:13;;;;;;;28.10;14.20;;;;;;;2.86;79.82;101409.28;5032037;28;20042;-52
2021/12/13 05:15:42;;;;;;;29.48;15.75;;;;;;;2.83;80.19;101417.03;5046415;28;20033;-51
2021/12/13 05:18:27;;;;;;;28.48;14.48;;;;;;;2.85;80.21;101427.44;5056261;28;20029;-51
2021/12/13 05:21:03;;;;;;;29.42;13.98;;;;;;;2.87;80.12;101424.06;5052770;28;20028;-50
2021/12/13 05:23:31;;;;;;;30.50;14.40;;;;;;;2.86;80.08;101421.38;5035826;28;20084;-51
2021/12/13 05:26:02;;;;;;;31.80;15.45;;;;;;;2.85;80.20;101420.50;5035412;28;20057;-49
2021/12/13 05:28:39;;;;;;;38.50;18.67;;;;;;;2.88;80.29;101428.41;5040706;28;20061;-48
2021/12/13 05:31:15;;;;;;;30.52;14.55;;;;;;;2.87;80.49;101431.84;5037059;28;20129;-50
2021/12/13 05:33:42;;;;;;;26.88;13.75;;;;;;;2.94;80.28;101428.53;5041063;28;20055;-49
2021/12/13 05:36:18;;;;;;;26.67;13.98;;;;;;;2.99;80.04;101430.38;5055433;28;20037;-49
2021/12/13 05:38:45;;;;;;;33.65;15.82;;;;;;;3.05;80.00;101438.34;5055510;28;20098;-50
2021/12/13 05:41:27;;;;;;;29.00;15.05;;;;;;;3.08;79.68;101433.22;5042522;28;20041;-51
2021/12/13 05:43:57;;;;;;;30.95;14.80;;;;;;;3.04;79.75;101428.78;5039883;28;20158;-51
2021/12/13 05:46:32;;;;;;;31.83;15.57;;;;;;;3.07;79.70;101434.94;5035182;28;20033;-52
2021/12/13 05:49:02;;;;;;;29.38;14.52;;;;;;;3.06;79.70;101427.97;5036509;28;20026;-52
2021/12/13 05:51:40;;;;;;;35.15;15.98;;;;;;;3.07;79.65;101415.88;5035319;28;20076;-50
2021/12/13 05:54:22;;;;;;;30.23;15.30;;;;;;;3.09;79.62;101425.47;5035143;28;20069;-52
2021/12/13 05:56:55;;;;;;;33.15;16.33;;;;;;;3.08;79.66;101423.72;5037232;28;20040;-48
2021/12/13 05:59:30;;;;;;;37.40;16.58;;;;;;;3.09;79.56;101427.19;5051956;28;20037;-50
2021/12/13 06:02:08;;;;;;;33.90;16.75;;;;;;;3.04;79.59;101424.47;5048757;28;20033;-49
2021/12/13 06:04:38;;;;;;;33.45;17.30;;;;;;;3.01;79.85;101427.00;5034787;28;20124;-49
2021/12/13 06:07:41;;;;;;;33.25;17.60;;;;;;;2.96;80.33;101436.38;5050269;28;20116;-50
2021/12/13 06:10:09;;;;;;;29.10;14.88;;;;;;;3.00;80.30;101426.97;5054945;28;20503;-49
2021/12/13 06:12:54;;;;;;;30.10;15.70;;;;;;;2.96;80.42;101431.19;5053069;28;20105;-49
2021/12/13 06:15:27;;;;;;;29.60;13.95;;;;;;;2.98;80.23;101439.88;5054786;28;20036;-53
2021/12/13 06:18:04;;;;;;;30.17;15.45;;;;;;;3.01;80.21;101433.91;5053487;28;20140;-49
2021/12/13 06:21:26;;;;;;;27.13;15.05;;;;;;;3.03;80.10;101438.28;5052273;28;20041;-49
2021/12/13 06:23:52;;;;;;;32.63;16.00;;;;;;;2.96;80.48;101431.19;5050452;28;20072;-50
2021/12/13 06:26:17;;;;;;;34.22;16.33;;;;;;;3.00;80.41;101430.44;5016089;28;20088;-50
2021/12/13 06:28:52;;;;;;;31.85;16.55;;;;;;;3.01;80.25;101437.38;5038256;28;20427;-49
2021/12/13 06:31:21;;;;;;;33.60;16.27;;;;;;;3.04;80.21;101431.41;5034480;28;20075;-50
2021/12/13 06:33:53;;;;;;;32.95;17.13;;;;;;;3.08;80.09;101438.44;5036513;28;20037;-49
2021/12/13 06:36:31;;;;;;;32.47;16.08;;;;;;;3.06;80.07;101438.38;5055357;28;20053;-51
2021/12/13 06:39:01;;;;;;;31.88;15.55;;;;;;;3.05;80.15;101431.41;5039229;28;20516;-51
2021/12/13 06:41:26;;;;;;;28.77;14.60;;;;;;;3.06;80.68;101442.69;5035421;28;20369;-51
2021/12/13 06:43:54;;;;;;;31.30;15.43;;;;;;;3.08;80.27;101441.91;5052646;28;20037;-51
2021/12/13 06:46:22;;;;;;;33.20;17.42;;;;;;;3.05;80.35;101452.19;5055038;28;20048;-53
2021/12/13 06:48:59;;;;;;;39.60;19.00;;;;;;;3.04;80.32;101442.66;5051572;28;20548;-50
2021/12/13 06:51:43;;;;;;;35.42;17.75;;;;;;;3.06;80.23;101442.69;5053937;28;20464;-50
2021/12/13 06:54:13;;;;;;;35.85;17.27;;;;;;;3.07;80.34;101454.81;5055123;28;20040;-52
2021/12/13 06:56:41;;;;;;;36.40;16.88;;;;;;;3.06;80.20;101453.94;5050975;28;20029;-50
2021/12/13 06:59:08;;;;;;;36.55;17.60;;;;;;;3.02;80.82;101452.09;5055500;28;20461;-49
2021/12/13 07:01:37;;;;;;;47.35;22.65;;;;;;;3.06;80.61;101448.75;5052549;28;20071;-51
2021/12/13 07:04:07;;;;;;;57.42;25.40;;;;;;;3.13;80.28;101455.00;5035046;28;20025;-50
2021/12/13 07:06:33;;;;;;;46.30;21.40;;;;;;;3.14;80.01;101444.63;5033844;28;20034;-49
2021/12/13 07:09:09;;;;;;;46.00;21.73;;;;;;;3.12;80.72;101451.53;5033599;28;20045;-50
2021/12/13 07:11:40;;;;;;;39.03;19.58;;;;;;;3.18;79.89;101451.66;5035422;28;20030;-53
2021/12/13 07:14:09;;;;;;;39.10;18.75;;;;;;;3.24;79.64;101450.97;5033654;28;20025;-52
2021/12/13 07:16:38;;;;;;;38.55;19.25;;;;;;;3.22;79.72;101460.41;5026427;28;20090;-50
2021/12/13 07:19:25;;;;;;;39.50;20.40;;;;;;;3.22;79.64;101455.22;5034755;28;20025;-52
2021/12/13 07:21:56;;;;;;;51.33;23.13;;;;;;;3.26;79.64;101462.25;5034818;28;20221;-53
2021/12/13 07:24:43;;;;;;;57.78;25.45;;;;;;;3.29;79.47;101461.47;5052065;28;20090;-50
2021/12/13 07:27:29;;;;;;;69.90;30.90;;;;;;;3.36;79.27;101478.97;5044634;28;20042;-51
2021/12/13 07:30:21;;;;;;;56.78;24.90;;;;;;;3.40;78.98;101473.88;5036426;28;20038;-50
2021/12/13 07:32:58;;;;;;;76.35;30.67;;;;;;;3.47;78.65;101482.69;5030751;28;20461;-49
2021/12/13 07:35:40;;;;;;;80.35;33.90;;;;;;;3.53;78.42;101472.44;5040384;28;20041;-50
2021/12/13 07:38:05;;;;;;;66.70;30.77;;;;;;;3.60;78.26;101479.56;5050747;28;20034;-50
2021/12/13 07:41:05;;;;;;;49.92;23.48;;;;;;;3.67;77.57;101490.97;5034709;28;20044;-55
2021/12/13 07:43:43;;;;;;;47.85;23.00;;;;;;;3.75;77.33;101498.94;5038812;28;20056;-49
2021/12/13 07:46:18;;;;;;;40.08;20.67;;;;;;;3.75;76.97;101488.56;5034916;28;20033;-51
2021/12/13 07:48:43;;;;;;;37.15;18.65;;;;;;;3.75;77.00;101498.94;5034096;28;20041;-49
2021/12/13 07:51:08;;;;;;;38.35;18.83;;;;;;;3.76;77.52;101491.22;5035675;28;20042;-52
2021/12/13 07:53:57;;;;;;;41.20;19.35;;;;;;;3.81;76.96;101499.13;5050989;28;20029;-50
2021/12/13 07:56:28;;;;;;;45.25;22.88;;;;;;;3.76;77.29;101491.22;5052154;28;20033;-52
2021/12/13 07:59:17;;;;;;;51.55;23.98;;;;;;;3.77;77.11;101492.09;5037959;28;20044;-51
2021/12/13 08:02:05;;;;;;;50.25;24.42;;;;;;;3.81;77.04;101489.59;5033363;28;20032;-52
2021/12/13 08:04:44;;;;;;;41.72;19.65;;;;;;;3.87;77.00;101483.63;5050406;28;20071;-52
2021/12/13 08:07:23;;;;;;;41.35;19.25;;;;;;;3.92;76.41;101488.13;5052648;28;20031;-53
2021/12/13 08:09:53;;;;;;;36.85;17.77;;;;;;;3.94;76.48;101496.81;5033149;28;20026;-53
2021/12/13 08:12:45;;;;;;;38.08;18.67;;;;;;;4.00;76.33;101496.09;5031386;28;20029;-54
2021/12/13 08:15:16;;;;;;;36.28;18.40;;;;;;;4.04;76.19;101492.72;5036199;28;20040;-50
2021/12/13 08:18:06;;;;;;;40.75;20.23;;;;;;;4.08;75.87;101497.16;5060997;28;20530;-52
2021/12/13 08:20:45;;;;;;;37.05;16.65;;;;;;;4.05;75.94;101507.47;5053592;28;20441;-51
2021/12/13 08:23:20;;;;;;;29.45;14.57;;;;;;;4.08;75.70;101514.50;5052077;28;20111;-51
2021/12/13 08:25:50;;;;;;;32.50;15.80;;;;;;;4.05;75.73;101512.69;5053392;28;20057;-52
2021/12/13 08:28:29;;;;;;;30.45;14.95;;;;;;;4.03;75.96;101519.59;5051631;28;20045;-51
2021/12/13 08:30:59;;;;;;;32.38;15.63;;;;;;;4.05;75.86;101525.69;5050209;28;20029;-51
2021/12/13 08:33:53;;;;;;;35.33;15.82;;;;;;;4.06;75.77;101530.03;5031145;28;20087;-50
2021/12/13 08:36:33;;;;;;;34.47;17.17;;;;;;;3.98;76.13;101538.50;5031685;28;20029;-51
2021/12/13 08:39:01;;;;;;;38.83;19.15;;;;;;;4.12;79.70;101535.41;5045724;28;20043;-53
2021/12/13 08:41:40;;;;;;;36.65;18.02;;;;;;;4.37;78.39;101530.75;5052202;28;20037;-52
2021/12/13 08:44:11;;;;;;;31.95;16.45;;;;;;;4.49;76.71;101535.34;5052438;28;20033;-53
2021/12/13 08:46:48;;;;;;;30.05;15.07;;;;;;;4.51;75.29;101534.53;5053218;28;20114;-50
2021/12/13 08:49:13;;;;;;;33.97;16.70;;;;;;;4.54;75.24;101539.78;5056799;28;20361;-54
2021/12/13 08:51:50;;;;;;;34.22;15.48;;;;;;;4.45;74.20;101534.38;5057440;28;20040;-53
2021/12/13 08:54:17;;;;;;;31.88;15.27;;;;;;;4.39;75.07;101532.53;5055842;28;20102;-52
2021/12/13 08:56:49;;;;;;;34.65;16.25;;;;;;;4.42;75.10;101536.91;5056076;28;20106;-53
2021/12/13 08:59:24;;;;;;;34.42;16.75;;;;;;;4.54;74.79;101531.97;5036106;28;20038;-54
2021/12/13 09:02:10;;;;;;;36.08;18.00;;;;;;;4.66;73.83;101534.81;5041525;28;20033;-49
2021/12/13 09:04:41;;;;;;;35.83;18.05;;;;;;;4.75;73.54;101523.75;5037486;28;20041;-53
2021/12/13 09:07:12;;;;;;;36.03;18.80;;;;;;;4.81;73.12;101528.19;5036007;28;20034;-54
2021/12/13 09:09:43;;;;;;;39.97;19.63;;;;;;;4.77;72.88;101531.59;5037125;28;20052;-49
2021/12/13 09:12:11;;;;;;;40.17;21.10;;;;;;;4.77;72.79;101529.84;5047262;28;20486;-52
2021/12/13 09:14:44;;;;;;;41.00;21.30;;;;;;;4.82;72.76;101532.53;5035873;28;20584;-54
2021/12/13 09:17:26;;;;;;;37.35;19.45;;;;;;;4.79;72.17;101533.38;5037131;28;20499;-51
2021/12/13 09:20:00;;;;;;;34.58;17.15;;;;;;;4.85;72.69;101533.50;5050764;28;20036;-53
2021/12/13 09:22:38;;;;;;;38.38;19.70;;;;;;;4.90;72.06;101533.56;5052252;28;20033;-50
2021/12/13 09:25:07;;;;;;;36.30;17.90;;;;;;;4.96;72.17;101536.31;5035681;28;20067;-54
2021/12/13 09:27:38;;;;;;;37.13;19.25;;;;;;;5.02;71.78;101538.16;5036763;28;20045;-52
2021/12/13 09:30:07;;;;;;;36.53;19.25;;;;;;;5.06;71.92;101538.22;5035576;28;20072;-50
2021/12/13 09:32:39;;;;;;;36.25;18.25;;;;;;;5.12;71.52;101540.09;5038877;28;20029;-54
2021/12/13 09:35:26;;;;;;;35.33;18.75;;;;;;;5.16;71.02;101550.59;5056307;28;20120;-54
2021/12/13 09:37:53;;;;;;;34.75;18.48;;;;;;;5.15;71.02;101553.19;5056492;28;20047;-51
2021/12/13 09:40:25;;;;;;;36.78;18.70;;;;;;;5.08;71.21;101546.09;5056568;28;20041;-52
2021/12/13 09:42:56;;;;;;;36.80;18.92;;;;;;;5.08;71.12;101541.75;5045128;28;20128;-53
2021/12/13 09:45:37;;;;;;;39.50;20.25;;;;;;;5.08;70.95;101546.09;5056302;28;20503;-54
2021/12/13 09:48:18;;;;;;;31.60;17.30;;;;;;;5.12;70.91;101542.69;5040530;28;20037;-50
2021/12/13 09:50:45;;;;;;;34.17;19.30;;;;;;;5.18;71.88;101541.06;5036588;28;20079;-51
2021/12/13 09:53:11;;;;;;;35.75;19.48;;;;;;;5.26;71.14;101540.34;5062071;28;20029;-54
2021/12/13 09:55:41;;;;;;;34.15;18.55;;;;;;;5.35;70.61;101541.41;5047501;28;20044;-53
2021/12/13 09:58:19;;;;;;;35.13;18.70;;;;;;;5.43;70.05;101541.53;5036738;28;20056;-53
2021/12/13 10:00:50;;;;;;;38.13;20.13;;;;;;;5.54;70.10;101539.09;5034300;28;20042;-51
2021/12/13 10:03:23;;;;;;;35.55;19.05;;;;;;;5.61;69.75;101544.44;5034892;28;20045;-53
2021/12/13 10:05:53;;;;;;;38.40;20.05;;;;;;;5.72;69.57;101539.44;5044853;28;20103;-51
2021/12/13 10:08:29;;;;;;;40.38;20.25;;;;;;;5.76;69.18;101528.19;5054515;28;20117;-55
2021/12/13 10:11:04;;;;;;;33.83;18.92;;;;;;;5.78;69.20;101538.63;5034733;28;20037;-51
2021/12/13 10:13:34;;;;;;;32.67;18.70;;;;;;;5.77;69.26;101539.50;5047355;28;20060;-51
2021/12/13 10:16:07;;;;;;;38.03;20.98;;;;;;;5.80;69.31;101530.00;5056264;28;20078;-53
2021/12/13 10:18:36;;;;;;;40.80;21.45;;;;;;;5.84;69.09;101536.16;5054186;28;20041;-50
2021/12/13 10:21:08;;;;;;;41.35;23.05;;;;;;;5.79;69.10;101532.59;5045184;28;20515;-52
2021/12/13 10:23:40;;;;;;;38.00;21.55;;;;;;;5.74;69.25;101529.00;5055546;28;20041;-50
2021/12/13 10:26:10;;;;;;;38.53;20.02;;;;;;;5.77;69.19;101523.84;5054395;28;20053;-49
2021/12/13 10:28:39;;;;;;;34.97;21.10;;;;;;;5.83;69.13;101534.41;5052347;28;20040;-49
2021/12/13 10:31:19;;;;;;;33.90;19.30;;;;;;;5.86;69.07;101529.22;5035502;28;20350;-50
2021/12/13 10:33:47;;;;;;;39.35;22.15;;;;;;;5.86;69.08;101519.66;5034643;28;20037;-53
2021/12/13 10:36:13;;;;;;;35.25;19.83;;;;;;;5.86;69.08;101519.66;5034466;28;20034;-51
2021/12/13 10:38:49;;;;;;;37.40;19.20;;;;;;;5.91;68.93;101520.63;5017810;28;20530;-53
2021/12/13 10:41:26;;;;;;;39.83;20.90;;;;;;;6.01;68.47;101520.78;5018791;28;20037;-52
2021/12/13 10:43:57;;;;;;;39.45;21.90;;;;;;;6.02;68.35;101519.91;5046257;28;20473;-50
2021/12/13 10:46:31;;;;;;;42.58;25.02;;;;;;;6.06;68.31;101512.16;5054206;28;20124;-54
2021/12/13 10:49:11;;;;;;;42.22;23.75;;;;;;;6.03;68.47;101516.47;5054388;28;20048;-50
2021/12/13 10:51:40;;;;;;;38.55;22.23;;;;;;;5.94;68.64;101517.19;5055396;28;20480;-53
2021/12/13 10:54:18;;;;;;;36.95;19.88;;;;;;;5.94;68.48;101511.97;5054966;28;20033;-52
2021/12/13 10:56:50;;;;;;;34.83;19.63;;;;;;;5.95;69.03;101523.31;5053436;28;20039;-49
2021/12/13 10:59:20;;;;;;;40.27;22.87;;;;;;;5.85;69.02;101510.06;5036406;28;20037;-50
2021/12/13 11:01:50;;;;;;;37.35;20.88;;;;;;;5.87;69.20;101520.56;5041204;28;20263;-49
2021/12/13 11:04:23;;;;;;;37.35;20.50;;;;;;;5.83;69.25;101521.34;5034137;28;20033;-53
2021/12/13 11:06:50;;;;;;;35.88;20.02;;;;;;;5.74;69.37;101513.38;5034182;28;20138;-50
2021/12/13 11:09:20;;;;;;;42.58;23.88;;;;;;;5.78;69.39;101515.16;5018989;28;20095;-49
2021/12/13 11:11:59;;;;;;;41.17;22.30;;;;;;;5.72;69.17;101513.34;5040732;28;20401;-53
2021/12/13 11:14:27;;;;;;;41.75;22.02;;;;;;;5.72;69.33;101512.47;5017256;28;20112;-51
2021/12/13 11:16:57;;;;;;;40.28;23.02;;;;;;;5.73;69.33;101520.31;5052076;28;20037;-51
2021/12/13 11:19:27;;;;;;;40.05;21.77;;;;;;;5.78;69.77;101523.00;5053033;28;20079;-51
2021/12/13 11:22:01;;;;;;;36.85;20.55;;;;;;;5.79;69.22;101522.16;5053420;28;20387;-52
2021/12/13 11:24:28;;;;;;;39.55;22.25;;;;;;;5.84;69.16;101523.97;5053198;28;20028;-53
2021/12/13 11:27:01;;;;;;;41.22;23.35;;;;;;;5.79;69.01;101522.16;5051157;28;20049;-54
2021/12/13 11:29:28;;;;;;;35.53;20.98;;;;;;;5.74;69.11;101513.38;5052675;28;20084;-54
2021/12/13 11:31:53;;;;;;;36.40;19.33;;;;;;;5.67;69.32;101528.06;5052270;28;20033;-50
2021/12/13 11:34:38;;;;;;;36.83;20.45;;;;;;;5.61;69.47;101517.50;5053723;28;20392;-52
2021/12/13 11:37:41;;;;;;;44.88;25.08;;;;;;;5.60;69.26;101521.84;5053761;28;20064;-51
2021/12/13 11:40:34;;;;;;;42.78;23.02;;;;;;;5.60;69.51;101524.44;5053826;28;20024;-52
2021/12/13 11:43:27;;;;;;;43.08;23.63;;;;;;;5.52;69.43;101528.66;5052457;28;20040;-53
2021/12/13 11:46:29;;;;;;;44.33;23.42;;;;;;;5.55;69.58;101523.50;5052826;28;20037;-53
2021/12/13 11:49:16;;;;;;;46.38;25.33;;;;;;;5.57;69.68;101527.00;5052972;28;20527;-51
2021/12/13 11:52:03;;;;;;;43.28;23.67;;;;;;;5.60;69.51;101531.41;5054212;28;20056;-51
2021/12/13 11:54:53;;;;;;;39.42;22.38;;;;;;;5.59;69.63;101525.31;5053037;28;20029;-50
2021/12/13 11:57:51;;;;;;;35.38;19.00;;;;;;;5.62;69.56;101520.13;5053698;28;20040;-51
2021/12/13 12:00:31;;;;;;;39.45;20.27;;;;;;;5.68;69.54;101519.38;5053921;28;20124;-51